Terminal Aerodrome Forecast
Issued by NWS Sterling, VA

Current Version | Previous Version | Graphics & Text | Print | Product List | Glossary On
Versions: 1 2 3 4 5 6 7 8 9 10 11 12 13 14 15 16 17 18 19 20 21 22 23 24
735
FTUS41 KLWX 182101 AAA
TAFIAD
TAF AMD
KIAD 182101Z 1821/1924 17010G18KT P6SM BKN090 OVC200
     FM190000 19015G26KT P6SM SCT040 OVC200
     FM190500 19018G31KT P6SM -SHRA SCT035 OVC080
     FM190800 23017G29KT 6SM -SHRA SCT025 OVC045
     FM191100 29020G35KT P6SM SCT040 BKN150=

USA.gov is the U.S. government's official web portal to all federal, state and local government web resources and services.